sensor_id;sensor_type;location;lat;lon;timestamp;P1;durP1;ratioP1;P2;durP2;ratioP2
1509;SDS011;746;48.688;9.428;2022-07-15T00:00:29;3.00;;;2.80;;
1509;SDS011;746;48.688;9.428;2022-07-15T00:02:51;4.40;;;2.87;;
1509;SDS011;746;48.688;9.428;2022-07-15T00:05:14;3.70;;;2.97;;
1509;SDS011;746;48.688;9.428;2022-07-15T00:07:36;3.10;;;2.80;;
1509;SDS011;746;48.688;9.428;2022-07-15T00:09:57;5.50;;;2.67;;
1509;SDS011;746;48.688;9.428;2022-07-15T00:12:39;3.20;;;2.90;;
1509;SDS011;746;48.688;9.428;2022-07-15T00:15:00;4.13;;;2.50;;
1509;SDS011;746;48.688;9.428;2022-07-15T00:17:22;2.97;;;2.70;;
1509;SDS011;746;48.688;9.428;2022-07-15T00:19:43;3.07;;;2.60;;
1509;SDS011;746;48.688;9.428;2022-07-15T00:22:06;3.07;;;2.77;;
1509;SDS011;746;48.688;9.428;2022-07-15T00:24:28;2.77;;;2.40;;
1509;SDS011;746;48.688;9.428;2022-07-15T00:26:49;4.93;;;2.93;;
1509;SDS011;746;48.688;9.428;2022-07-15T00:29:11;2.70;;;2.50;;
1509;SDS011;746;48.688;9.428;2022-07-15T00:31:31;4.93;;;2.60;;
1509;SDS011;746;48.688;9.428;2022-07-15T00:33:53;3.33;;;3.03;;
1509;SDS011;746;48.688;9.428;2022-07-15T00:36:15;4.60;;;2.50;;
1509;SDS011;746;48.688;9.428;2022-07-15T00:38:37;3.07;;;2.80;;
1509;SDS011;746;48.688;9.428;2022-07-15T00:40:59;3.37;;;2.97;;
1509;SDS011;746;48.688;9.428;2022-07-15T00:43:21;2.93;;;2.70;;
1509;SDS011;746;48.688;9.428;2022-07-15T00:45:43;3.20;;;2.90;;
1509;SDS011;746;48.688;9.428;2022-07-15T00:48:05;3.73;;;2.80;;
1509;SDS011;746;48.688;9.428;2022-07-15T00:50:30;2.80;;;2.60;;
1509;SDS011;746;48.688;9.428;2022-07-15T00:52:53;3.07;;;2.47;;
1509;SDS011;746;48.688;9.428;2022-07-15T00:55:17;4.80;;;2.77;;
1509;SDS011;746;48.688;9.428;2022-07-15T00:57:40;3.07;;;2.70;;
1509;SDS011;746;48.688;9.428;2022-07-15T01:00:03;3.83;;;2.70;;
1509;SDS011;746;48.688;9.428;2022-07-15T01:02:25;2.97;;;2.77;;
1509;SDS011;746;48.688;9.428;2022-07-15T01:04:47;3.23;;;2.93;;
1509;SDS011;746;48.688;9.428;2022-07-15T01:07:10;3.23;;;2.77;;
1509;SDS011;746;48.688;9.428;2022-07-15T01:09:31;2.97;;;2.70;;
1509;SDS011;746;48.688;9.428;2022-07-15T01:11:54;2.93;;;2.70;;
1509;SDS011;746;48.688;9.428;2022-07-15T01:14:16;4.80;;;3.10;;
1509;SDS011;746;48.688;9.428;2022-07-15T01:16:37;2.90;;;2.70;;
1509;SDS011;746;48.688;9.428;2022-07-15T01:18:59;2.90;;;2.70;;
1509;SDS011;746;48.688;9.428;2022-07-15T01:21:22;3.00;;;2.73;;
1509;SDS011;746;48.688;9.428;2022-07-15T01:23:43;6.80;;;2.80;;
1509;SDS011;746;48.688;9.428;2022-07-15T01:26:05;3.00;;;2.80;;
1509;SDS011;746;48.688;9.428;2022-07-15T01:28:26;3.30;;;2.97;;
1509;SDS011;746;48.688;9.428;2022-07-15T01:30:47;4.23;;;3.00;;
1509;SDS011;746;48.688;9.428;2022-07-15T01:33:09;3.17;;;2.90;;
1509;SDS011;746;48.688;9.428;2022-07-15T01:35:31;5.03;;;3.37;;
1509;SDS011;746;48.688;9.428;2022-07-15T01:37:53;3.97;;;3.03;;
1509;SDS011;746;48.688;9.428;2022-07-15T01:40:15;3.43;;;3.03;;
1509;SDS011;746;48.688;9.428;2022-07-15T01:42:36;2.87;;;2.67;;
1509;SDS011;746;48.688;9.428;2022-07-15T01:44:57;5.73;;;2.90;;
1509;SDS011;746;48.688;9.428;2022-07-15T01:47:18;6.53;;;2.97;;
1509;SDS011;746;48.688;9.428;2022-07-15T01:49:40;4.43;;;2.87;;
1509;SDS011;746;48.688;9.428;2022-07-15T01:52:01;3.03;;;2.83;;
1509;SDS011;746;48.688;9.428;2022-07-15T01:54:25;3.00;;;2.70;;
1509;SDS011;746;48.688;9.428;2022-07-15T01:56:46;2.90;;;2.70;;
1509;SDS011;746;48.688;9.428;2022-07-15T01:59:08;4.30;;;3.30;;
1509;SDS011;746;48.688;9.428;2022-07-15T02:01:29;3.30;;;3.10;;
1509;SDS011;746;48.688;9.428;2022-07-15T02:03:51;3.30;;;3.00;;
1509;SDS011;746;48.688;9.428;2022-07-15T02:06:13;3.87;;;2.90;;
1509;SDS011;746;48.688;9.428;2022-07-15T02:08:35;4.60;;;3.17;;
1509;SDS011;746;48.688;9.428;2022-07-15T02:10:57;5.03;;;3.17;;
1509;SDS011;746;48.688;9.428;2022-07-15T02:13:19;3.30;;;3.07;;
1509;SDS011;746;48.688;9.428;2022-07-15T02:15:40;4.80;;;3.33;;
1509;SDS011;746;48.688;9.428;2022-07-15T02:18:02;5.50;;;3.43;;
1509;SDS011;746;48.688;9.428;2022-07-15T02:20:24;4.13;;;3.70;;
1509;SDS011;746;48.688;9.428;2022-07-15T02:22:45;4.37;;;3.30;;
1509;SDS011;746;48.688;9.428;2022-07-15T02:25:10;3.97;;;3.57;;
1509;SDS011;746;48.688;9.428;2022-07-15T02:27:33;4.37;;;3.40;;
1509;SDS011;746;48.688;9.428;2022-07-15T02:29:54;4.17;;;3.77;;
1509;SDS011;746;48.688;9.428;2022-07-15T02:32:17;3.77;;;3.50;;
1509;SDS011;746;48.688;9.428;2022-07-15T02:34:38;4.60;;;3.40;;
1509;SDS011;746;48.688;9.428;2022-07-15T02:36:59;4.10;;;3.70;;
1509;SDS011;746;48.688;9.428;2022-07-15T02:39:21;5.73;;;3.57;;
1509;SDS011;746;48.688;9.428;2022-07-15T02:41:42;3.73;;;3.43;;
1509;SDS011;746;48.688;9.428;2022-07-15T02:44:05;4.10;;;3.20;;
1509;SDS011;746;48.688;9.428;2022-07-15T02:46:27;4.27;;;3.40;;
1509;SDS011;746;48.688;9.428;2022-07-15T02:48:48;5.77;;;3.17;;
1509;SDS011;746;48.688;9.428;2022-07-15T02:51:10;3.70;;;3.30;;
1509;SDS011;746;48.688;9.428;2022-07-15T02:53:32;3.50;;;3.20;;
1509;SDS011;746;48.688;9.428;2022-07-15T02:55:53;4.50;;;3.50;;
1509;SDS011;746;48.688;9.428;2022-07-15T02:58:15;4.97;;;3.40;;
1509;SDS011;746;48.688;9.428;2022-07-15T03:00:38;4.63;;;3.43;;
1509;SDS011;746;48.688;9.428;2022-07-15T03:02:59;4.43;;;3.37;;
1509;SDS011;746;48.688;9.428;2022-07-15T03:05:21;3.83;;;3.40;;
1509;SDS011;746;48.688;9.428;2022-07-15T03:07:43;4.33;;;3.63;;
1509;SDS011;746;48.688;9.428;2022-07-15T03:10:04;3.67;;;3.37;;
1509;SDS011;746;48.688;9.428;2022-07-15T03:12:26;4.83;;;3.67;;
1509;SDS011;746;48.688;9.428;2022-07-15T03:14:47;3.40;;;3.20;;
1509;SDS011;746;48.688;9.428;2022-07-15T03:17:10;4.07;;;3.47;;
1509;SDS011;746;48.688;9.428;2022-07-15T03:19:31;4.40;;;3.50;;
1509;SDS011;746;48.688;9.428;2022-07-15T03:21:53;6.23;;;3.80;;
1509;SDS011;746;48.688;9.428;2022-07-15T03:24:14;5.10;;;3.37;;
1509;SDS011;746;48.688;9.428;2022-07-15T03:26:36;4.27;;;3.80;;
1509;SDS011;746;48.688;9.428;2022-07-15T03:28:57;3.50;;;3.20;;
1509;SDS011;746;48.688;9.428;2022-07-15T03:31:21;3.80;;;3.40;;
1509;SDS011;746;48.688;9.428;2022-07-15T03:33:44;3.13;;;2.83;;
1509;SDS011;746;48.688;9.428;2022-07-15T03:36:13;3.27;;;2.90;;
1509;SDS011;746;48.688;9.428;2022-07-15T03:38:34;5.37;;;3.87;;
1509;SDS011;746;48.688;9.428;2022-07-15T03:40:56;4.43;;;3.30;;
1509;SDS011;746;48.688;9.428;2022-07-15T03:43:17;5.80;;;3.30;;
1509;SDS011;746;48.688;9.428;2022-07-15T03:45:39;4.03;;;3.13;;
1509;SDS011;746;48.688;9.428;2022-07-15T03:48:01;3.37;;;3.03;;
1509;SDS011;746;48.688;9.428;2022-07-15T03:50:24;3.30;;;3.10;;
1509;SDS011;746;48.688;9.428;2022-07-15T03:52:46;3.37;;;3.07;;
1509;SDS011;746;48.688;9.428;2022-07-15T03:55:08;3.20;;;3.00;;
1509;SDS011;746;48.688;9.428;2022-07-15T03:57:30;3.50;;;3.20;;
1509;SDS011;746;48.688;9.428;2022-07-15T03:59:51;5.10;;;3.50;;
1509;SDS011;746;48.688;9.428;2022-07-15T04:02:12;3.40;;;3.10;;
1509;SDS011;746;48.688;9.428;2022-07-15T04:04:34;5.47;;;3.00;;
1509;SDS011;746;48.688;9.428;2022-07-15T04:06:57;3.53;;;3.23;;
1509;SDS011;746;48.688;9.428;2022-07-15T04:09:18;4.23;;;3.30;;
1509;SDS011;746;48.688;9.428;2022-07-15T04:11:39;3.63;;;3.20;;
1509;SDS011;746;48.688;9.428;2022-07-15T04:14:01;3.20;;;2.90;;
1509;SDS011;746;48.688;9.428;2022-07-15T04:16:24;5.80;;;3.33;;
1509;SDS011;746;48.688;9.428;2022-07-15T04:18:46;5.90;;;3.43;;
1509;SDS011;746;48.688;9.428;2022-07-15T04:21:07;3.83;;;3.20;;
1509;SDS011;746;48.688;9.428;2022-07-15T04:23:30;3.70;;;3.40;;
1509;SDS011;746;48.688;9.428;2022-07-15T04:25:51;3.50;;;3.20;;
1509;SDS011;746;48.688;9.428;2022-07-15T04:28:12;3.97;;;3.00;;
1509;SDS011;746;48.688;9.428;2022-07-15T04:30:33;3.57;;;3.27;;
1509;SDS011;746;48.688;9.428;2022-07-15T04:32:55;3.53;;;3.23;;
1509;SDS011;746;48.688;9.428;2022-07-15T04:35:16;4.83;;;3.13;;
1509;SDS011;746;48.688;9.428;2022-07-15T04:37:37;3.30;;;3.00;;
1509;SDS011;746;48.688;9.428;2022-07-15T04:40:00;4.13;;;3.20;;
1509;SDS011;746;48.688;9.428;2022-07-15T04:42:21;3.47;;;3.17;;
1509;SDS011;746;48.688;9.428;2022-07-15T04:44:43;3.40;;;3.10;;
1509;SDS011;746;48.688;9.428;2022-07-15T04:47:04;3.30;;;3.00;;
1509;SDS011;746;48.688;9.428;2022-07-15T04:49:25;3.43;;;3.13;;
1509;SDS011;746;48.688;9.428;2022-07-15T04:52:10;4.33;;;3.40;;
1509;SDS011;746;48.688;9.428;2022-07-15T04:54:31;4.83;;;3.30;;
1509;SDS011;746;48.688;9.428;2022-07-15T04:56:53;3.37;;;3.17;;
1509;SDS011;746;48.688;9.428;2022-07-15T04:59:15;3.57;;;3.30;;
1509;SDS011;746;48.688;9.428;2022-07-15T05:01:36;4.23;;;3.50;;
1509;SDS011;746;48.688;9.428;2022-07-15T05:03:57;3.70;;;3.40;;
1509;SDS011;746;48.688;9.428;2022-07-15T05:06:19;3.43;;;3.10;;
1509;SDS011;746;48.688;9.428;2022-07-15T05:08:40;3.97;;;3.30;;
1509;SDS011;746;48.688;9.428;2022-07-15T05:11:01;3.73;;;3.43;;
1509;SDS011;746;48.688;9.428;2022-07-15T05:13:24;5.73;;;3.47;;
1509;SDS011;746;48.688;9.428;2022-07-15T05:15:45;4.17;;;3.10;;
1509;SDS011;746;48.688;9.428;2022-07-15T05:18:07;4.23;;;3.63;;
1509;SDS011;746;48.688;9.428;2022-07-15T05:20:28;3.80;;;3.50;;
1509;SDS011;746;48.688;9.428;2022-07-15T05:22:49;3.73;;;3.43;;
1509;SDS011;746;48.688;9.428;2022-07-15T05:25:10;4.57;;;3.40;;
1509;SDS011;746;48.688;9.428;2022-07-15T05:27:32;3.70;;;3.40;;
1509;SDS011;746;48.688;9.428;2022-07-15T05:29:54;5.33;;;3.43;;
1509;SDS011;746;48.688;9.428;2022-07-15T05:32:15;3.60;;;3.30;;
1509;SDS011;746;48.688;9.428;2022-07-15T05:34:36;3.50;;;3.10;;
1509;SDS011;746;48.688;9.428;2022-07-15T05:36:58;4.23;;;3.10;;
1509;SDS011;746;48.688;9.428;2022-07-15T05:39:19;5.57;;;4.00;;
1509;SDS011;746;48.688;9.428;2022-07-15T05:41:40;5.10;;;3.07;;
1509;SDS011;746;48.688;9.428;2022-07-15T05:44:07;3.50;;;3.10;;
1509;SDS011;746;48.688;9.428;2022-07-15T05:46:29;3.87;;;3.40;;
1509;SDS011;746;48.688;9.428;2022-07-15T05:48:51;3.70;;;3.40;;
1509;SDS011;746;48.688;9.428;2022-07-15T05:51:12;5.07;;;3.37;;
1509;SDS011;746;48.688;9.428;2022-07-15T05:53:34;5.13;;;3.27;;
1509;SDS011;746;48.688;9.428;2022-07-15T05:55:55;3.53;;;3.20;;
1509;SDS011;746;48.688;9.428;2022-07-15T05:58:17;4.33;;;3.07;;
1509;SDS011;746;48.688;9.428;2022-07-15T06:00:38;4.13;;;3.27;;
1509;SDS011;746;48.688;9.428;2022-07-15T06:03:01;4.00;;;3.10;;
1509;SDS011;746;48.688;9.428;2022-07-15T06:05:23;3.57;;;3.23;;
1509;SDS011;746;48.688;9.428;2022-07-15T06:07:44;3.00;;;2.80;;
1509;SDS011;746;48.688;9.428;2022-07-15T06:10:06;3.83;;;3.40;;
1509;SDS011;746;48.688;9.428;2022-07-15T06:12:28;3.40;;;3.10;;
1509;SDS011;746;48.688;9.428;2022-07-15T06:14:49;3.87;;;2.73;;
1509;SDS011;746;48.688;9.428;2022-07-15T06:17:11;3.03;;;2.83;;
1509;SDS011;746;48.688;9.428;2022-07-15T06:19:34;5.43;;;3.10;;
1509;SDS011;746;48.688;9.428;2022-07-15T06:21:55;3.27;;;2.97;;
1509;SDS011;746;48.688;9.428;2022-07-15T06:24:16;4.33;;;3.67;;
1509;SDS011;746;48.688;9.428;2022-07-15T06:26:39;3.67;;;2.97;;
1509;SDS011;746;48.688;9.428;2022-07-15T06:29:00;4.17;;;3.10;;
1509;SDS011;746;48.688;9.428;2022-07-15T06:31:21;3.23;;;2.90;;
1509;SDS011;746;48.688;9.428;2022-07-15T06:33:42;4.97;;;3.00;;
1509;SDS011;746;48.688;9.428;2022-07-15T06:36:05;4.63;;;2.50;;
1509;SDS011;746;48.688;9.428;2022-07-15T06:38:26;3.20;;;2.60;;
1509;SDS011;746;48.688;9.428;2022-07-15T06:40:48;4.47;;;2.77;;
1509;SDS011;746;48.688;9.428;2022-07-15T06:43:09;4.93;;;2.80;;
1509;SDS011;746;48.688;9.428;2022-07-15T06:45:32;5.90;;;3.00;;
1509;SDS011;746;48.688;9.428;2022-07-15T06:47:53;3.40;;;3.10;;
1509;SDS011;746;48.688;9.428;2022-07-15T06:50:14;3.47;;;2.87;;
1509;SDS011;746;48.688;9.428;2022-07-15T06:52:37;3.23;;;2.80;;
1509;SDS011;746;48.688;9.428;2022-07-15T06:54:59;3.50;;;2.80;;
1509;SDS011;746;48.688;9.428;2022-07-15T06:57:20;2.70;;;2.50;;
1509;SDS011;746;48.688;9.428;2022-07-15T06:59:41;3.30;;;2.67;;
1509;SDS011;746;48.688;9.428;2022-07-15T07:02:03;3.57;;;2.97;;
1509;SDS011;746;48.688;9.428;2022-07-15T07:04:24;4.40;;;2.87;;
1509;SDS011;746;48.688;9.428;2022-07-15T07:06:45;6.30;;;3.10;;
1509;SDS011;746;48.688;9.428;2022-07-15T07:09:08;4.43;;;3.30;;
1509;SDS011;746;48.688;9.428;2022-07-15T07:11:30;5.80;;;3.03;;
1509;SDS011;746;48.688;9.428;2022-07-15T07:13:52;5.20;;;3.20;;
1509;SDS011;746;48.688;9.428;2022-07-15T07:16:13;3.63;;;2.87;;
1509;SDS011;746;48.688;9.428;2022-07-15T07:18:35;10.23;;;3.43;;
1509;SDS011;746;48.688;9.428;2022-07-15T07:20:57;4.80;;;3.00;;
1509;SDS011;746;48.688;9.428;2022-07-15T07:23:18;5.33;;;2.80;;
1509;SDS011;746;48.688;9.428;2022-07-15T07:25:41;5.10;;;3.03;;
1509;SDS011;746;48.688;9.428;2022-07-15T07:28:03;2.77;;;2.57;;
1509;SDS011;746;48.688;9.428;2022-07-15T07:30:24;8.10;;;2.60;;
1509;SDS011;746;48.688;9.428;2022-07-15T07:32:45;3.20;;;2.20;;
1509;SDS011;746;48.688;9.428;2022-07-15T07:35:07;2.90;;;2.60;;
1509;SDS011;746;48.688;9.428;2022-07-15T07:37:28;3.20;;;2.53;;
1509;SDS011;746;48.688;9.428;2022-07-15T07:39:49;3.77;;;2.67;;
1509;SDS011;746;48.688;9.428;2022-07-15T07:42:12;5.37;;;2.60;;
1509;SDS011;746;48.688;9.428;2022-07-15T07:44:33;2.73;;;2.53;;
1509;SDS011;746;48.688;9.428;2022-07-15T07:46:54;4.50;;;2.60;;
1509;SDS011;746;48.688;9.428;2022-07-15T07:49:16;6.93;;;2.57;;
1509;SDS011;746;48.688;9.428;2022-07-15T07:51:54;4.83;;;2.43;;
1509;SDS011;746;48.688;9.428;2022-07-15T07:54:15;2.73;;;2.53;;
1509;SDS011;746;48.688;9.428;2022-07-15T07:56:37;5.43;;;2.37;;
1509;SDS011;746;48.688;9.428;2022-07-15T07:58:59;3.37;;;2.60;;
1509;SDS011;746;48.688;9.428;2022-07-15T08:01:21;3.43;;;2.60;;
1509;SDS011;746;48.688;9.428;2022-07-15T08:03:42;2.57;;;2.37;;
1509;SDS011;746;48.688;9.428;2022-07-15T08:06:05;2.90;;;2.60;;
1509;SDS011;746;48.688;9.428;2022-07-15T08:08:26;2.77;;;2.40;;
1509;SDS011;746;48.688;9.428;2022-07-15T08:10:48;3.43;;;2.63;;
1509;SDS011;746;48.688;9.428;2022-07-15T08:13:10;2.53;;;2.33;;
1509;SDS011;746;48.688;9.428;2022-07-15T08:15:32;3.00;;;2.30;;
1509;SDS011;746;48.688;9.428;2022-07-15T08:17:54;2.87;;;2.40;;
1509;SDS011;746;48.688;9.428;2022-07-15T08:20:15;2.50;;;2.30;;
1509;SDS011;746;48.688;9.428;2022-07-15T08:22:36;4.53;;;2.80;;
1509;SDS011;746;48.688;9.428;2022-07-15T08:24:57;3.17;;;2.40;;
1509;SDS011;746;48.688;9.428;2022-07-15T08:27:19;2.70;;;2.50;;
1509;SDS011;746;48.688;9.428;2022-07-15T08:29:40;3.63;;;2.30;;
1509;SDS011;746;48.688;9.428;2022-07-15T08:32:03;3.77;;;2.50;;
1509;SDS011;746;48.688;9.428;2022-07-15T08:34:24;4.50;;;2.43;;
1509;SDS011;746;48.688;9.428;2022-07-15T08:36:45;2.60;;;2.07;;
1509;SDS011;746;48.688;9.428;2022-07-15T08:39:07;3.47;;;2.43;;
1509;SDS011;746;48.688;9.428;2022-07-15T08:41:28;3.30;;;2.50;;
1509;SDS011;746;48.688;9.428;2022-07-15T08:43:49;3.50;;;2.17;;
1509;SDS011;746;48.688;9.428;2022-07-15T08:46:11;2.93;;;2.43;;
1509;SDS011;746;48.688;9.428;2022-07-15T08:48:36;2.73;;;2.53;;
1509;SDS011;746;48.688;9.428;2022-07-15T08:50:58;3.60;;;2.67;;
1509;SDS011;746;48.688;9.428;2022-07-15T08:53:20;2.60;;;2.40;;
1509;SDS011;746;48.688;9.428;2022-07-15T08:55:41;4.10;;;2.60;;
1509;SDS011;746;48.688;9.428;2022-07-15T08:58:03;2.63;;;2.33;;
1509;SDS011;746;48.688;9.428;2022-07-15T09:00:24;5.07;;;2.50;;
1509;SDS011;746;48.688;9.428;2022-07-15T09:02:48;4.03;;;2.30;;
1509;SDS011;746;48.688;9.428;2022-07-15T09:05:22;4.17;;;2.40;;
1509;SDS011;746;48.688;9.428;2022-07-15T09:07:54;3.67;;;2.50;;
1509;SDS011;746;48.688;9.428;2022-07-15T09:10:16;4.60;;;2.33;;
1509;SDS011;746;48.688;9.428;2022-07-15T09:12:39;2.40;;;2.20;;
1509;SDS011;746;48.688;9.428;2022-07-15T09:15:01;3.73;;;2.50;;
1509;SDS011;746;48.688;9.428;2022-07-15T09:17:23;2.90;;;2.60;;
1509;SDS011;746;48.688;9.428;2022-07-15T09:19:57;2.80;;;2.60;;
1509;SDS011;746;48.688;9.428;2022-07-15T09:22:20;3.23;;;2.37;;
1509;SDS011;746;48.688;9.428;2022-07-15T09:24:42;2.40;;;2.20;;
1509;SDS011;746;48.688;9.428;2022-07-15T09:29:40;2.77;;;2.50;;
1509;SDS011;746;48.688;9.428;2022-07-15T09:32:19;3.93;;;2.43;;
1509;SDS011;746;48.688;9.428;2022-07-15T09:34:58;3.77;;;2.77;;
1509;SDS011;746;48.688;9.428;2022-07-15T09:37:21;2.90;;;2.50;;
1509;SDS011;746;48.688;9.428;2022-07-15T09:39:52;2.53;;;2.33;;
1509;SDS011;746;48.688;9.428;2022-07-15T09:42:14;4.03;;;2.60;;
1509;SDS011;746;48.688;9.428;2022-07-15T09:44:35;2.73;;;2.47;;
1509;SDS011;746;48.688;9.428;2022-07-15T09:46:56;2.73;;;2.53;;
1509;SDS011;746;48.688;9.428;2022-07-15T09:49:30;2.63;;;2.47;;
1509;SDS011;746;48.688;9.428;2022-07-15T09:51:54;2.83;;;2.63;;
1509;SDS011;746;48.688;9.428;2022-07-15T09:54:16;3.00;;;2.60;;
1509;SDS011;746;48.688;9.428;2022-07-15T09:56:37;4.70;;;2.60;;
1509;SDS011;746;48.688;9.428;2022-07-15T09:58:59;5.37;;;3.10;;
1509;SDS011;746;48.688;9.428;2022-07-15T10:01:24;7.17;;;3.10;;
1509;SDS011;746;48.688;9.428;2022-07-15T10:03:46;3.07;;;2.87;;
1509;SDS011;746;48.688;9.428;2022-07-15T10:06:08;3.47;;;2.70;;
1509;SDS011;746;48.688;9.428;2022-07-15T10:08:31;4.63;;;3.00;;
1509;SDS011;746;48.688;9.428;2022-07-15T10:10:54;3.80;;;2.77;;
1509;SDS011;746;48.688;9.428;2022-07-15T10:13:19;3.13;;;2.93;;
1509;SDS011;746;48.688;9.428;2022-07-15T10:15:47;5.03;;;3.00;;
1509;SDS011;746;48.688;9.428;2022-07-15T10:18:14;4.13;;;2.90;;
1509;SDS011;746;48.688;9.428;2022-07-15T10:20:42;4.30;;;2.90;;
1509;SDS011;746;48.688;9.428;2022-07-15T10:23:10;3.33;;;2.90;;
1509;SDS011;746;48.688;9.428;2022-07-15T10:25:40;3.43;;;3.10;;
1509;SDS011;746;48.688;9.428;2022-07-15T10:28:08;3.50;;;3.00;;
1509;SDS011;746;48.688;9.428;2022-07-15T10:30:31;3.13;;;2.80;;
1509;SDS011;746;48.688;9.428;2022-07-15T10:33:08;3.20;;;2.97;;
1509;SDS011;746;48.688;9.428;2022-07-15T10:35:34;3.23;;;2.93;;
1509;SDS011;746;48.688;9.428;2022-07-15T10:40:56;3.10;;;2.90;;
1509;SDS011;746;48.688;9.428;2022-07-15T10:43:19;2.90;;;2.70;;
1509;SDS011;746;48.688;9.428;2022-07-15T10:46:02;5.80;;;3.00;;
1509;SDS011;746;48.688;9.428;2022-07-15T10:48:24;3.83;;;3.10;;
1509;SDS011;746;48.688;9.428;2022-07-15T10:50:46;4.27;;;2.70;;
1509;SDS011;746;48.688;9.428;2022-07-15T10:53:15;6.07;;;2.87;;
1509;SDS011;746;48.688;9.428;2022-07-15T10:55:37;3.87;;;2.80;;
1509;SDS011;746;48.688;9.428;2022-07-15T10:58:01;3.20;;;2.90;;
1509;SDS011;746;48.688;9.428;2022-07-15T11:00:26;6.20;;;2.70;;
1509;SDS011;746;48.688;9.428;2022-07-15T11:03:00;4.23;;;3.13;;
1509;SDS011;746;48.688;9.428;2022-07-15T11:05:22;3.93;;;2.90;;
1509;SDS011;746;48.688;9.428;2022-07-15T11:07:43;3.40;;;3.20;;
1509;SDS011;746;48.688;9.428;2022-07-15T11:10:14;4.10;;;3.20;;
1509;SDS011;746;48.688;9.428;2022-07-15T11:12:54;4.67;;;2.90;;
1509;SDS011;746;48.688;9.428;2022-07-15T11:15:16;3.13;;;2.77;;
1509;SDS011;746;48.688;9.428;2022-07-15T11:17:40;3.10;;;2.80;;
1509;SDS011;746;48.688;9.428;2022-07-15T11:20:02;3.17;;;2.87;;
1509;SDS011;746;48.688;9.428;2022-07-15T11:22:28;2.97;;;2.70;;
1509;SDS011;746;48.688;9.428;2022-07-15T11:24:49;3.10;;;2.90;;
1509;SDS011;746;48.688;9.428;2022-07-15T11:27:10;3.83;;;2.80;;
1509;SDS011;746;48.688;9.428;2022-07-15T11:29:42;2.93;;;2.73;;
1509;SDS011;746;48.688;9.428;2022-07-15T11:32:05;3.77;;;3.00;;
1509;SDS011;746;48.688;9.428;2022-07-15T11:34:38;5.13;;;2.63;;
1509;SDS011;746;48.688;9.428;2022-07-15T11:36:59;3.10;;;2.80;;
1509;SDS011;746;48.688;9.428;2022-07-15T11:39:26;3.30;;;3.00;;
1509;SDS011;746;48.688;9.428;2022-07-15T11:41:51;6.07;;;3.43;;
1509;SDS011;746;48.688;9.428;2022-07-15T11:44:30;4.23;;;2.90;;
1509;SDS011;746;48.688;9.428;2022-07-15T11:46:52;4.03;;;3.00;;
1509;SDS011;746;48.688;9.428;2022-07-15T11:49:25;3.40;;;3.10;;
1509;SDS011;746;48.688;9.428;2022-07-15T11:51:47;3.87;;;2.80;;
1509;SDS011;746;48.688;9.428;2022-07-15T11:54:12;3.00;;;2.80;;
1509;SDS011;746;48.688;9.428;2022-07-15T11:56:34;3.17;;;2.97;;
1509;SDS011;746;48.688;9.428;2022-07-15T11:58:55;5.23;;;2.90;;
1509;SDS011;746;48.688;9.428;2022-07-15T12:01:17;3.67;;;3.00;;
1509;SDS011;746;48.688;9.428;2022-07-15T12:03:39;4.30;;;3.03;;
1509;SDS011;746;48.688;9.428;2022-07-15T12:06:02;5.37;;;3.30;;
1509;SDS011;746;48.688;9.428;2022-07-15T12:08:33;2.93;;;2.63;;
1509;SDS011;746;48.688;9.428;2022-07-15T12:10:54;3.00;;;2.80;;
1509;SDS011;746;48.688;9.428;2022-07-15T12:13:16;3.33;;;3.03;;
1509;SDS011;746;48.688;9.428;2022-07-15T12:15:37;4.00;;;3.30;;
1509;SDS011;746;48.688;9.428;2022-07-15T12:17:58;3.90;;;3.23;;
1509;SDS011;746;48.688;9.428;2022-07-15T12:20:19;3.60;;;3.30;;
1509;SDS011;746;48.688;9.428;2022-07-15T12:25:21;4.83;;;3.00;;
1509;SDS011;746;48.688;9.428;2022-07-15T12:27:42;3.23;;;2.97;;
1509;SDS011;746;48.688;9.428;2022-07-15T12:30:05;2.97;;;2.70;;
1509;SDS011;746;48.688;9.428;2022-07-15T12:32:28;3.47;;;2.60;;
1509;SDS011;746;48.688;9.428;2022-07-15T12:34:51;3.80;;;2.83;;
1509;SDS011;746;48.688;9.428;2022-07-15T12:37:12;3.70;;;3.00;;
1509;SDS011;746;48.688;9.428;2022-07-15T12:39:33;5.03;;;3.20;;
1509;SDS011;746;48.688;9.428;2022-07-15T12:42:00;2.93;;;2.60;;
1509;SDS011;746;48.688;9.428;2022-07-15T12:44:21;3.10;;;2.80;;
1509;SDS011;746;48.688;9.428;2022-07-15T12:46:50;2.80;;;2.60;;
1509;SDS011;746;48.688;9.428;2022-07-15T12:49:12;2.87;;;2.60;;
1509;SDS011;746;48.688;9.428;2022-07-15T12:51:33;5.20;;;2.87;;
1509;SDS011;746;48.688;9.428;2022-07-15T12:54:02;3.83;;;2.80;;
1509;SDS011;746;48.688;9.428;2022-07-15T12:56:24;3.33;;;2.73;;
1509;SDS011;746;48.688;9.428;2022-07-15T12:58:47;3.00;;;2.80;;
1509;SDS011;746;48.688;9.428;2022-07-15T13:01:10;3.47;;;2.93;;
1509;SDS011;746;48.688;9.428;2022-07-15T13:03:32;5.63;;;2.87;;
1509;SDS011;746;48.688;9.428;2022-07-15T13:05:54;3.20;;;3.00;;
1509;SDS011;746;48.688;9.428;2022-07-15T13:08:16;2.83;;;2.63;;
1509;SDS011;746;48.688;9.428;2022-07-15T13:10:38;2.83;;;2.63;;
1509;SDS011;746;48.688;9.428;2022-07-15T13:13:00;4.90;;;2.60;;
1509;SDS011;746;48.688;9.428;2022-07-15T13:15:23;6.47;;;2.50;;
1509;SDS011;746;48.688;9.428;2022-07-15T13:17:45;3.40;;;3.00;;
1509;SDS011;746;48.688;9.428;2022-07-15T13:20:07;3.27;;;2.83;;
1509;SDS011;746;48.688;9.428;2022-07-15T13:22:30;3.40;;;2.70;;
1509;SDS011;746;48.688;9.428;2022-07-15T13:24:51;6.40;;;2.77;;
1509;SDS011;746;48.688;9.428;2022-07-15T13:27:12;4.93;;;3.00;;
1509;SDS011;746;48.688;9.428;2022-07-15T13:29:34;2.77;;;2.57;;
1509;SDS011;746;48.688;9.428;2022-07-15T13:31:56;4.17;;;2.70;;
1509;SDS011;746;48.688;9.428;2022-07-15T13:34:18;4.90;;;3.40;;
1509;SDS011;746;48.688;9.428;2022-07-15T13:36:39;5.73;;;3.17;;
1509;SDS011;746;48.688;9.428;2022-07-15T13:39:00;3.07;;;2.87;;
1509;SDS011;746;48.688;9.428;2022-07-15T13:41:22;7.83;;;3.07;;
1509;SDS011;746;48.688;9.428;2022-07-15T13:43:43;5.10;;;2.97;;
1509;SDS011;746;48.688;9.428;2022-07-15T13:46:05;7.37;;;3.03;;
1509;SDS011;746;48.688;9.428;2022-07-15T13:48:28;4.10;;;3.00;;
1509;SDS011;746;48.688;9.428;2022-07-15T13:50:49;3.57;;;2.63;;
1509;SDS011;746;48.688;9.428;2022-07-15T13:53:28;2.70;;;2.50;;
1509;SDS011;746;48.688;9.428;2022-07-15T13:55:51;8.30;;;2.90;;
1509;SDS011;746;48.688;9.428;2022-07-15T13:58:13;4.43;;;2.77;;
1509;SDS011;746;48.688;9.428;2022-07-15T14:00:34;6.07;;;2.80;;
1509;SDS011;746;48.688;9.428;2022-07-15T14:02:59;3.20;;;2.90;;
1509;SDS011;746;48.688;9.428;2022-07-15T14:05:22;3.47;;;2.63;;
1509;SDS011;746;48.688;9.428;2022-07-15T14:07:44;2.77;;;2.57;;
1509;SDS011;746;48.688;9.428;2022-07-15T14:10:06;3.80;;;2.50;;
1509;SDS011;746;48.688;9.428;2022-07-15T14:12:27;5.00;;;2.90;;
1509;SDS011;746;48.688;9.428;2022-07-15T14:14:48;5.33;;;3.17;;
1509;SDS011;746;48.688;9.428;2022-07-15T14:17:09;3.70;;;2.50;;
1509;SDS011;746;48.688;9.428;2022-07-15T14:19:31;3.77;;;2.73;;
1509;SDS011;746;48.688;9.428;2022-07-15T14:21:53;4.57;;;2.40;;
1509;SDS011;746;48.688;9.428;2022-07-15T14:24:15;4.20;;;2.90;;
1509;SDS011;746;48.688;9.428;2022-07-15T14:26:36;3.07;;;2.80;;
1509;SDS011;746;48.688;9.428;2022-07-15T14:28:58;4.83;;;2.73;;
1509;SDS011;746;48.688;9.428;2022-07-15T14:31:19;4.77;;;2.60;;
1509;SDS011;746;48.688;9.428;2022-07-15T14:33:41;5.07;;;2.80;;
1509;SDS011;746;48.688;9.428;2022-07-15T14:36:03;4.63;;;3.07;;
1509;SDS011;746;48.688;9.428;2022-07-15T14:38:26;3.00;;;2.80;;
1509;SDS011;746;48.688;9.428;2022-07-15T14:40:47;5.23;;;2.90;;
1509;SDS011;746;48.688;9.428;2022-07-15T14:43:09;5.23;;;2.83;;
1509;SDS011;746;48.688;9.428;2022-07-15T14:45:30;5.00;;;2.60;;
1509;SDS011;746;48.688;9.428;2022-07-15T14:47:52;3.40;;;3.10;;
1509;SDS011;746;48.688;9.428;2022-07-15T14:50:13;3.40;;;2.70;;
1509;SDS011;746;48.688;9.428;2022-07-15T14:52:41;3.63;;;2.97;;
1509;SDS011;746;48.688;9.428;2022-07-15T14:55:05;3.90;;;2.93;;
1509;SDS011;746;48.688;9.428;2022-07-15T14:57:27;4.37;;;2.60;;
1509;SDS011;746;48.688;9.428;2022-07-15T14:59:48;4.83;;;2.53;;
1509;SDS011;746;48.688;9.428;2022-07-15T15:02:10;3.90;;;2.73;;
1509;SDS011;746;48.688;9.428;2022-07-15T15:04:31;3.07;;;2.60;;
1509;SDS011;746;48.688;9.428;2022-07-15T15:06:52;5.20;;;2.50;;
1509;SDS011;746;48.688;9.428;2022-07-15T15:09:14;2.73;;;2.57;;